Flight Track Log - Related Links

Times and Time Zones

All times are in EDT time to prevent confusion due to time zone crossing. See the KAP927 flight status page for this flight to view local times or setup timezone preferences in your user account.

Time Position Orientation Groundspeed Altitude Reporting Facility
EDT Latitude Longitude Course Direction KTS MPH feet Rate Location/Type
Fri 07:03:01 PM 43.4308 -74.3442 329° Northwest 166 191 8,000  Level Boston Center
Fri 07:04:01 PM 43.4697 -74.3769 329° Northwest 166 191 8,000  Level Boston Center
Fri 07:05:01 PM 43.5108 -74.4125 328° Northwest 166 191 8,000  Level Boston Center
Fri 07:06:01 PM 43.5478 -74.4453 327° Northwest 166 191 8,000  Level Boston Center
Fri 07:07:01 PM 43.5908 -74.4839 327° Northwest 166 191 8,000  Level Boston Center
Fri 07:08:01 PM 43.6297 -74.5197 326° Northwest 166 191 8,000  Level Boston Center
Fri 07:09:01 PM 43.6689 -74.5528 329° Northwest 166 191 8,000  Level Boston Center
Fri 07:10:01 PM 43.7078 -74.5856 329° Northwest 166 191 8,000  Level Boston Center
Fri 07:11:01 PM 43.7467 -74.6214 326° Northwest 166 191 8,000  Level Boston Center
Fri 07:12:01 PM 43.7856 -74.6575 326° Northwest 166 191 8,000  Level Boston Center
Fri 07:13:01 PM 43.8247 -74.6906 329° Northwest 166 191 8,000  Level Boston Center
Fri 07:14:01 PM 43.8656 -74.7267 327° Northwest 166 191 8,000  Level Boston Center
Fri 07:15:01 PM 43.9044 -74.7628 326° Northwest 166 191 8,000  Level Boston Center
Fri 07:16:01 PM 43.9433 -74.7958 329° Northwest 166 191 8,000  Level Boston Center
Fri 07:17:01 PM 43.9742 -74.8231 328° Northwest 166 191 8,000  Level Boston Center
Fri 07:18:01 PM 44.0297 -74.8483 342° North 166 191 8,000  Level Boston Center
Fri 07:19:01 PM 44.0733 -74.8647 345° North 166 191 8,000  Level Boston Center
Fri 07:20:01 PM 44.1186 -74.8867 341° North 166 191 8,000  Level Boston Center
Fri 07:21:01 PM 44.1642 -74.9058 343° North 166 191 8,000 -200 Level Boston Center
Fri 07:22:01 PM 44.2072 -74.9281 340° North 166 191 7,600 -450 Descending Boston Center
Fri 07:23:01 PM 44.2569 -74.9503 342° North 166 191 7,100 -500 Descending Boston Center
Fri 07:24:01 PM 44.3022 -74.9756 338° Northwest 166 191 6,600 -450 Descending Boston Center
Fri 07:25:01 PM 44.3497 -74.9892 348° North 171 197 6,200 -500 Descending Boston Center
Fri 07:26:01 PM 44.3950 -75.0144 338° Northwest 171 197 5,600 -450 Descending Boston Center
Fri 07:27:01 PM 44.4364 -75.0306 344° North 165 190 5,300 -300 Descending Boston Center
Fri 07:28:01 PM 44.4794 -75.0558 337° Northwest 160 184 5,000 -150 Descending Boston Center
Fri 07:29:01 PM 44.5042 -75.0686 340° North 154 177 5,000 -300 Level Boston Center
Fri 07:30:01 PM 44.5581 -75.0914 343° North 140 161 4,400 -650 Descending Boston Center
Fri 07:31:01 PM 44.6033 -75.1108 343° North 158 182 3,700 -500 Descending Boston Center
Fri 07:32:01 PM 44.6486 -75.1364 338° Northwest 173 199 3,400 -227 Descending Boston Center
Fri 07:33:13 PM 44.6878 -75.1586 338° Northwest 173 199 3,200 2,091 Descending Boston Center
Fri 07:34:13 PM 44.7411 -75.1844 341° North 173 199 8,000 2,400 Climbing Boston Center
Fri 07:35:13 PM 44.7825 -75.2069 339° North 173 199 8,000  Level Boston Center

Login

Don't have an account? Register now (free) for customized features, flight alerts, and more!